sensor_id;sensor_type;location;lat;lon;timestamp;P1;durP1;ratioP1;P2;durP2;ratioP2
69523;SDS011;56723;42.694;23.286;2023-01-15T06:24:23;97.60;;;59.10;;
69523;SDS011;56723;42.694;23.286;2023-01-15T06:26:50;98.33;;;60.00;;
69523;SDS011;56723;42.694;23.286;2023-01-15T06:29:17;81.57;;;48.30;;
69523;SDS011;56723;42.694;23.286;2023-01-15T06:31:45;46.75;;;27.33;;
69523;SDS011;56723;42.694;23.286;2023-01-15T06:34:15;50.33;;;29.13;;
69523;SDS011;56723;42.694;23.286;2023-01-15T06:36:42;52.57;;;30.67;;
69523;SDS011;56723;42.694;23.286;2023-01-15T06:39:09;49.83;;;29.03;;
69523;SDS011;56723;42.694;23.286;2023-01-15T06:41:36;52.00;;;30.73;;
69523;SDS011;56723;42.694;23.286;2023-01-15T06:44:21;54.70;;;29.43;;
69523;SDS011;56723;42.694;23.286;2023-01-15T06:47:13;49.40;;;26.87;;
69523;SDS011;56723;42.694;23.286;2023-01-15T07:17:48;42.53;;;22.37;;
69523;SDS011;56723;42.694;23.286;2023-01-15T07:20:20;45.23;;;25.17;;
69523;SDS011;56723;42.694;23.286;2023-01-15T07:22:47;48.50;;;27.40;;
69523;SDS011;56723;42.694;23.286;2023-01-15T07:25:15;44.33;;;25.33;;
69523;SDS011;56723;42.694;23.286;2023-01-15T07:27:44;43.50;;;24.43;;
69523;SDS011;56723;42.694;23.286;2023-01-15T07:32:39;40.90;;;22.83;;
69523;SDS011;56723;42.694;23.286;2023-01-15T07:35:06;44.17;;;22.93;;
69523;SDS011;56723;42.694;23.286;2023-01-15T07:37:35;41.55;;;21.38;;
69523;SDS011;56723;42.694;23.286;2023-01-15T07:40:03;37.17;;;20.77;;
69523;SDS011;56723;42.694;23.286;2023-01-15T07:42:31;33.17;;;18.60;;
69523;SDS011;56723;42.694;23.286;2023-01-15T07:45:16;34.13;;;20.10;;
69523;SDS011;56723;42.694;23.286;2023-01-15T07:48:01;35.53;;;20.03;;
69523;SDS011;56723;42.694;23.286;2023-01-15T07:50:47;33.10;;;19.20;;
69523;SDS011;56723;42.694;23.286;2023-01-15T07:53:14;35.57;;;19.90;;
69523;SDS011;56723;42.694;23.286;2023-01-15T07:55:41;24.70;;;15.77;;
69523;SDS011;56723;42.694;23.286;2023-01-15T07:58:08;39.20;;;25.50;;
69523;SDS011;56723;42.694;23.286;2023-01-15T08:00:35;43.70;;;29.07;;
69523;SDS011;56723;42.694;23.286;2023-01-15T08:03:01;44.67;;;30.50;;
69523;SDS011;56723;42.694;23.286;2023-01-15T08:05:29;42.73;;;28.20;;
69523;SDS011;56723;42.694;23.286;2023-01-15T08:07:56;40.23;;;24.63;;
69523;SDS011;56723;42.694;23.286;2023-01-15T08:10:22;41.83;;;25.63;;
69523;SDS011;56723;42.694;23.286;2023-01-15T08:12:50;33.33;;;22.60;;
69523;SDS011;56723;42.694;23.286;2023-01-15T08:15:39;32.00;;;21.47;;
69523;SDS011;56723;42.694;23.286;2023-01-15T08:18:09;33.23;;;19.90;;
69523;SDS011;56723;42.694;23.286;2023-01-15T08:20:36;23.57;;;15.63;;
69523;SDS011;56723;42.694;23.286;2023-01-15T08:23:03;19.25;;;13.93;;
69523;SDS011;56723;42.694;23.286;2023-01-15T08:25:30;14.38;;;9.73;;
69523;SDS011;56723;42.694;23.286;2023-01-15T08:27:59;16.13;;;10.63;;
69523;SDS011;56723;42.694;23.286;2023-01-15T08:30:28;14.48;;;8.20;;
69523;SDS011;56723;42.694;23.286;2023-01-15T08:32:58;15.73;;;10.40;;
69523;SDS011;56723;42.694;23.286;2023-01-15T08:35:28;14.97;;;10.50;;
69523;SDS011;56723;42.694;23.286;2023-01-15T08:37:55;17.23;;;11.27;;
69523;SDS011;56723;42.694;23.286;2023-01-15T08:40:22;18.57;;;12.27;;
69523;SDS011;56723;42.694;23.286;2023-01-15T08:42:49;15.53;;;10.87;;
69523;SDS011;56723;42.694;23.286;2023-01-15T08:45:16;26.07;;;15.97;;
69523;SDS011;56723;42.694;23.286;2023-01-15T08:47:43;13.50;;;10.13;;
69523;SDS011;56723;42.694;23.286;2023-01-15T08:50:10;14.75;;;11.07;;
69523;SDS011;56723;42.694;23.286;2023-01-15T08:52:37;15.73;;;11.80;;
69523;SDS011;56723;42.694;23.286;2023-01-15T08:55:04;20.13;;;13.32;;
69523;SDS011;56723;42.694;23.286;2023-01-15T08:57:32;17.63;;;11.65;;
69523;SDS011;56723;42.694;23.286;2023-01-15T08:59:59;23.42;;;14.25;;
69523;SDS011;56723;42.694;23.286;2023-01-15T09:02:26;27.08;;;17.80;;
69523;SDS011;56723;42.694;23.286;2023-01-15T09:04:55;23.70;;;17.15;;
69523;SDS011;56723;42.694;23.286;2023-01-15T09:07:22;23.83;;;15.40;;
69523;SDS011;56723;42.694;23.286;2023-01-15T09:09:49;19.13;;;13.60;;
69523;SDS011;56723;42.694;23.286;2023-01-15T09:12:16;19.73;;;13.68;;
69523;SDS011;56723;42.694;23.286;2023-01-15T09:14:43;23.10;;;14.55;;
69523;SDS011;56723;42.694;23.286;2023-01-15T09:17:28;19.27;;;13.80;;
69523;SDS011;56723;42.694;23.286;2023-01-15T09:19:56;24.48;;;14.55;;
69523;SDS011;56723;42.694;23.286;2023-01-15T09:22:23;21.73;;;15.77;;
69523;SDS011;56723;42.694;23.286;2023-01-15T09:24:50;25.10;;;15.00;;
69523;SDS011;56723;42.694;23.286;2023-01-15T09:27:17;21.37;;;13.70;;
69523;SDS011;56723;42.694;23.286;2023-01-15T09:29:44;22.50;;;16.00;;
69523;SDS011;56723;42.694;23.286;2023-01-15T09:32:11;22.13;;;14.47;;
69523;SDS011;56723;42.694;23.286;2023-01-15T09:34:38;21.47;;;13.83;;
69523;SDS011;56723;42.694;23.286;2023-01-15T09:37:05;17.40;;;11.73;;
69523;SDS011;56723;42.694;23.286;2023-01-15T09:39:33;21.83;;;13.97;;
69523;SDS011;56723;42.694;23.286;2023-01-15T09:42:13;20.43;;;12.77;;
69523;SDS011;56723;42.694;23.286;2023-01-15T09:56:04;18.48;;;12.07;;
69523;SDS011;56723;42.694;23.286;2023-01-15T09:58:36;20.08;;;11.43;;
69523;SDS011;56723;42.694;23.286;2023-01-15T10:01:05;20.77;;;13.17;;
69523;SDS011;56723;42.694;23.286;2023-01-15T10:03:46;20.93;;;13.97;;
69523;SDS011;56723;42.694;23.286;2023-01-15T10:08:45;27.23;;;16.07;;
69523;SDS011;56723;42.694;23.286;2023-01-15T10:14:01;24.80;;;15.00;;
69523;SDS011;56723;42.694;23.286;2023-01-15T10:16:36;24.43;;;15.50;;
69523;SDS011;56723;42.694;23.286;2023-01-15T10:19:04;24.37;;;14.73;;
69523;SDS011;56723;42.694;23.286;2023-01-15T10:24:06;29.97;;;17.50;;
69523;SDS011;56723;42.694;23.286;2023-01-15T10:32:00;33.53;;;17.63;;
69523;SDS011;56723;42.694;23.286;2023-01-15T10:37:54;25.53;;;17.10;;
69523;SDS011;56723;42.694;23.286;2023-01-15T10:46:24;33.73;;;18.37;;
69523;SDS011;56723;42.694;23.286;2023-01-15T10:48:56;29.03;;;18.07;;
69523;SDS011;56723;42.694;23.286;2023-01-15T10:54:31;20.07;;;13.17;;
69523;SDS011;56723;42.694;23.286;2023-01-15T10:57:15;26.00;;;14.83;;
69523;SDS011;56723;42.694;23.286;2023-01-15T11:00:08;21.77;;;13.60;;
69523;SDS011;56723;42.694;23.286;2023-01-15T11:02:44;22.75;;;14.18;;
69523;SDS011;56723;42.694;23.286;2023-01-15T11:05:48;19.40;;;12.23;;
69523;SDS011;56723;42.694;23.286;2023-01-15T11:08:23;17.87;;;12.30;;
69523;SDS011;56723;42.694;23.286;2023-01-15T11:11:25;16.70;;;10.83;;
69523;SDS011;56723;42.694;23.286;2023-01-15T11:14:45;18.80;;;12.52;;
69523;SDS011;56723;42.694;23.286;2023-01-15T11:20:29;20.43;;;12.40;;
69523;SDS011;56723;42.694;23.286;2023-01-15T11:23:06;20.20;;;12.50;;
69523;SDS011;56723;42.694;23.286;2023-01-15T11:25:35;19.73;;;12.80;;
69523;SDS011;56723;42.694;23.286;2023-01-15T11:28:05;24.02;;;14.48;;
69523;SDS011;56723;42.694;23.286;2023-01-15T11:30:36;17.15;;;11.38;;
69523;SDS011;56723;42.694;23.286;2023-01-15T11:33:04;18.00;;;12.38;;
69523;SDS011;56723;42.694;23.286;2023-01-15T11:35:52;16.02;;;11.23;;
69523;SDS011;56723;42.694;23.286;2023-01-15T11:38:25;19.50;;;12.30;;
69523;SDS011;56723;42.694;23.286;2023-01-15T11:40:53;17.33;;;11.27;;
69523;SDS011;56723;42.694;23.286;2023-01-15T11:43:23;18.27;;;11.35;;
69523;SDS011;56723;42.694;23.286;2023-01-15T11:46:23;16.00;;;10.40;;
69523;SDS011;56723;42.694;23.286;2023-01-15T11:49:17;15.18;;;10.85;;
69523;SDS011;56723;42.694;23.286;2023-01-15T11:52:21;18.00;;;11.57;;
69523;SDS011;56723;42.694;23.286;2023-01-15T11:54:50;15.63;;;11.48;;
69523;SDS011;56723;42.694;23.286;2023-01-15T11:57:38;16.30;;;12.10;;
69523;SDS011;56723;42.694;23.286;2023-01-15T12:00:06;18.20;;;11.85;;
69523;SDS011;56723;42.694;23.286;2023-01-15T12:02:41;14.77;;;10.60;;
69523;SDS011;56723;42.694;23.286;2023-01-15T12:05:16;17.90;;;11.48;;
69523;SDS011;56723;42.694;23.286;2023-01-15T12:07:50;18.95;;;11.60;;
69523;SDS011;56723;42.694;23.286;2023-01-15T12:10:23;13.93;;;10.40;;
69523;SDS011;56723;42.694;23.286;2023-01-15T12:14:00;18.10;;;10.15;;
69523;SDS011;56723;42.694;23.286;2023-01-15T12:16:30;14.73;;;9.60;;
69523;SDS011;56723;42.694;23.286;2023-01-15T12:24:40;15.05;;;10.50;;
69523;SDS011;56723;42.694;23.286;2023-01-15T12:30:02;13.38;;;9.45;;
69523;SDS011;56723;42.694;23.286;2023-01-15T12:32:40;11.95;;;9.52;;
69523;SDS011;56723;42.694;23.286;2023-01-15T12:40:47;12.95;;;9.40;;
69523;SDS011;56723;42.694;23.286;2023-01-15T12:43:22;12.35;;;8.70;;
69523;SDS011;56723;42.694;23.286;2023-01-15T12:46:11;11.90;;;8.30;;
69523;SDS011;56723;42.694;23.286;2023-01-15T12:48:49;12.35;;;8.75;;
69523;SDS011;56723;42.694;23.286;2023-01-15T12:51:22;13.45;;;9.27;;
69523;SDS011;56723;42.694;23.286;2023-01-15T12:53:57;13.82;;;8.38;;
69523;SDS011;56723;42.694;23.286;2023-01-15T12:59:49;11.38;;;8.45;;
69523;SDS011;56723;42.694;23.286;2023-01-15T13:05:20;11.50;;;8.73;;
69523;SDS011;56723;42.694;23.286;2023-01-15T13:08:02;14.50;;;9.25;;
69523;SDS011;56723;42.694;23.286;2023-01-15T13:10:38;12.10;;;8.73;;
69523;SDS011;56723;42.694;23.286;2023-01-15T13:13:25;12.80;;;8.55;;
69523;SDS011;56723;42.694;23.286;2023-01-15T13:21:34;10.38;;;7.65;;
69523;SDS011;56723;42.694;23.286;2023-01-15T13:24:07;10.90;;;7.70;;
69523;SDS011;56723;42.694;23.286;2023-01-15T13:27:05;10.68;;;7.70;;
69523;SDS011;56723;42.694;23.286;2023-01-15T13:30:18;8.40;;;6.53;;
69523;SDS011;56723;42.694;23.286;2023-01-15T13:32:58;12.02;;;8.15;;
69523;SDS011;56723;42.694;23.286;2023-01-15T13:35:41;11.55;;;8.13;;
69523;SDS011;56723;42.694;23.286;2023-01-15T13:38:15;12.38;;;8.98;;
69523;SDS011;56723;42.694;23.286;2023-01-15T13:40:47;13.65;;;8.18;;
69523;SDS011;56723;42.694;23.286;2023-01-15T13:46:07;11.07;;;8.38;;
69523;SDS011;56723;42.694;23.286;2023-01-15T13:53:54;10.35;;;8.05;;
69523;SDS011;56723;42.694;23.286;2023-01-15T13:56:27;11.55;;;8.07;;
69523;SDS011;56723;42.694;23.286;2023-01-15T13:59:00;13.40;;;8.38;;
69523;SDS011;56723;42.694;23.286;2023-01-15T14:26:55;12.67;;;8.13;;
69523;SDS011;56723;42.694;23.286;2023-01-15T14:32:26;15.57;;;9.13;;
69523;SDS011;56723;42.694;23.286;2023-01-15T14:34:59;15.67;;;10.50;;
69523;SDS011;56723;42.694;23.286;2023-01-15T14:37:32;13.40;;;10.03;;
69523;SDS011;56723;42.694;23.286;2023-01-15T14:40:17;12.63;;;9.23;;
69523;SDS011;56723;42.694;23.286;2023-01-15T14:42:47;11.27;;;8.37;;
69523;SDS011;56723;42.694;23.286;2023-01-15T14:47:55;13.83;;;9.30;;
69523;SDS011;56723;42.694;23.286;2023-01-15T14:50:31;13.63;;;9.77;;
69523;SDS011;56723;42.694;23.286;2023-01-15T14:58:29;13.70;;;9.57;;
69523;SDS011;56723;42.694;23.286;2023-01-15T15:06:49;16.67;;;10.80;;
69523;SDS011;56723;42.694;23.286;2023-01-15T15:10:03;17.83;;;11.93;;
69523;SDS011;56723;42.694;23.286;2023-01-15T15:17:36;19.60;;;12.30;;
69523;SDS011;56723;42.694;23.286;2023-01-15T15:23:08;23.10;;;12.87;;
69523;SDS011;56723;42.694;23.286;2023-01-15T15:25:40;23.03;;;14.63;;
69523;SDS011;56723;42.694;23.286;2023-01-15T15:28:09;19.37;;;12.87;;
69523;SDS011;56723;42.694;23.286;2023-01-15T15:30:42;21.30;;;13.77;;
69523;SDS011;56723;42.694;23.286;2023-01-15T15:33:18;19.97;;;12.87;;
69523;SDS011;56723;42.694;23.286;2023-01-15T15:35:49;21.27;;;14.33;;
69523;SDS011;56723;42.694;23.286;2023-01-15T15:38:20;22.70;;;14.07;;
69523;SDS011;56723;42.694;23.286;2023-01-15T15:40:49;21.30;;;14.10;;
69523;SDS011;56723;42.694;23.286;2023-01-15T15:43:37;25.80;;;16.57;;
69523;SDS011;56723;42.694;23.286;2023-01-15T15:46:28;27.77;;;17.13;;
69523;SDS011;56723;42.694;23.286;2023-01-15T15:49:15;28.20;;;17.20;;
69523;SDS011;56723;42.694;23.286;2023-01-15T15:51:47;24.37;;;15.27;;
69523;SDS011;56723;42.694;23.286;2023-01-15T15:54:22;25.90;;;16.90;;
69523;SDS011;56723;42.694;23.286;2023-01-15T15:57:03;29.60;;;17.00;;
69523;SDS011;56723;42.694;23.286;2023-01-15T15:59:38;27.13;;;17.20;;
69523;SDS011;56723;42.694;23.286;2023-01-15T16:02:15;35.33;;;21.13;;
69523;SDS011;56723;42.694;23.286;2023-01-15T16:04:52;39.03;;;25.63;;
69523;SDS011;56723;42.694;23.286;2023-01-15T16:07:22;39.80;;;26.17;;
69523;SDS011;56723;42.694;23.286;2023-01-15T16:09:53;30.87;;;19.13;;
69523;SDS011;56723;42.694;23.286;2023-01-15T16:12:24;43.97;;;26.90;;
69523;SDS011;56723;42.694;23.286;2023-01-15T16:14:54;40.30;;;23.00;;
69523;SDS011;56723;42.694;23.286;2023-01-15T16:17:23;52.42;;;32.58;;
69523;SDS011;56723;42.694;23.286;2023-01-15T16:19:53;41.13;;;25.35;;
69523;SDS011;56723;42.694;23.286;2023-01-15T16:22:21;36.85;;;21.65;;
69523;SDS011;56723;42.694;23.286;2023-01-15T16:24:55;47.20;;;28.33;;
69523;SDS011;56723;42.694;23.286;2023-01-15T16:27:27;45.43;;;25.97;;
69523;SDS011;56723;42.694;23.286;2023-01-15T16:30:01;44.17;;;25.50;;
69523;SDS011;56723;42.694;23.286;2023-01-15T16:32:29;46.60;;;26.60;;
69523;SDS011;56723;42.694;23.286;2023-01-15T16:35:20;75.40;;;37.75;;
69523;SDS011;56723;42.694;23.286;2023-01-15T16:37:50;76.10;;;38.90;;
69523;SDS011;56723;42.694;23.286;2023-01-15T16:40:31;71.97;;;37.80;;
69523;SDS011;56723;42.694;23.286;2023-01-15T16:43:11;81.10;;;46.57;;
69523;SDS011;56723;42.694;23.286;2023-01-15T16:45:55;64.40;;;35.70;;
69523;SDS011;56723;42.694;23.286;2023-01-15T16:48:23;74.23;;;40.03;;
69523;SDS011;56723;42.694;23.286;2023-01-15T16:51:28;61.55;;;32.03;;
69523;SDS011;56723;42.694;23.286;2023-01-15T16:53:58;70.30;;;35.30;;
69523;SDS011;56723;42.694;23.286;2023-01-15T16:59:15;52.27;;;29.70;;
69523;SDS011;56723;42.694;23.286;2023-01-15T17:01:43;49.20;;;25.27;;
69523;SDS011;56723;42.694;23.286;2023-01-15T17:09:50;41.03;;;25.07;;
69523;SDS011;56723;42.694;23.286;2023-01-15T17:12:29;44.97;;;27.37;;
69523;SDS011;56723;42.694;23.286;2023-01-15T17:17:53;47.10;;;27.17;;
69523;SDS011;56723;42.694;23.286;2023-01-15T17:20:22;59.00;;;32.30;;
69523;SDS011;56723;42.694;23.286;2023-01-15T17:22:53;52.63;;;29.63;;
69523;SDS011;56723;42.694;23.286;2023-01-15T17:25:28;59.13;;;32.07;;
69523;SDS011;56723;42.694;23.286;2023-01-15T17:27:59;46.43;;;25.43;;
69523;SDS011;56723;42.694;23.286;2023-01-15T17:30:27;47.55;;;26.77;;
69523;SDS011;56723;42.694;23.286;2023-01-15T17:32:59;54.33;;;30.73;;
69523;SDS011;56723;42.694;23.286;2023-01-15T17:35:28;48.28;;;26.85;;
69523;SDS011;56723;42.694;23.286;2023-01-15T17:37:59;46.90;;;26.33;;
69523;SDS011;56723;42.694;23.286;2023-01-15T17:40:27;45.43;;;27.67;;
69523;SDS011;56723;42.694;23.286;2023-01-15T17:42:55;48.93;;;29.80;;
69523;SDS011;56723;42.694;23.286;2023-01-15T17:45:28;46.83;;;27.27;;
69523;SDS011;56723;42.694;23.286;2023-01-15T17:47:56;44.60;;;27.00;;
69523;SDS011;56723;42.694;23.286;2023-01-15T17:50:23;44.07;;;25.83;;
69523;SDS011;56723;42.694;23.286;2023-01-15T17:52:50;47.50;;;28.03;;
69523;SDS011;56723;42.694;23.286;2023-01-15T17:55:19;43.17;;;25.67;;
69523;SDS011;56723;42.694;23.286;2023-01-15T17:58:07;43.80;;;24.60;;
69523;SDS011;56723;42.694;23.286;2023-01-15T18:00:56;44.57;;;24.13;;
69523;SDS011;56723;42.694;23.286;2023-01-15T18:03:44;39.47;;;22.10;;
69523;SDS011;56723;42.694;23.286;2023-01-15T18:08:59;40.60;;;22.87;;
69523;SDS011;56723;42.694;23.286;2023-01-15T18:13:55;37.30;;;21.17;;
69523;SDS011;56723;42.694;23.286;2023-01-15T18:16:23;42.73;;;23.57;;
69523;SDS011;56723;42.694;23.286;2023-01-15T18:18:52;41.10;;;23.73;;
69523;SDS011;56723;42.694;23.286;2023-01-15T18:21:19;40.93;;;23.50;;
69523;SDS011;56723;42.694;23.286;2023-01-15T18:23:47;38.33;;;21.70;;
69523;SDS011;56723;42.694;23.286;2023-01-15T18:26:14;39.53;;;24.03;;
69523;SDS011;56723;42.694;23.286;2023-01-15T18:28:41;37.63;;;21.90;;
69523;SDS011;56723;42.694;23.286;2023-01-15T18:31:08;41.13;;;23.23;;
69523;SDS011;56723;42.694;23.286;2023-01-15T18:33:37;38.78;;;23.30;;
69523;SDS011;56723;42.694;23.286;2023-01-15T18:36:05;43.53;;;25.83;;
69523;SDS011;56723;42.694;23.286;2023-01-15T18:38:37;40.20;;;24.60;;
69523;SDS011;56723;42.694;23.286;2023-01-15T18:41:12;43.13;;;22.97;;
69523;SDS011;56723;42.694;23.286;2023-01-15T18:44:05;40.93;;;22.43;;
69523;SDS011;56723;42.694;23.286;2023-01-15T18:46:55;43.10;;;24.97;;
69523;SDS011;56723;42.694;23.286;2023-01-15T18:49:24;47.67;;;28.70;;
69523;SDS011;56723;42.694;23.286;2023-01-15T18:51:51;50.20;;;30.00;;
69523;SDS011;56723;42.694;23.286;2023-01-15T18:54:37;54.90;;;32.43;;
69523;SDS011;56723;42.694;23.286;2023-01-15T18:57:04;58.00;;;34.73;;
69523;SDS011;56723;42.694;23.286;2023-01-15T18:59:31;54.73;;;33.73;;
69523;SDS011;56723;42.694;23.286;2023-01-15T19:01:58;60.60;;;36.33;;
69523;SDS011;56723;42.694;23.286;2023-01-15T19:04:26;63.23;;;38.23;;
69523;SDS011;56723;42.694;23.286;2023-01-15T19:06:53;79.13;;;42.80;;
69523;SDS011;56723;42.694;23.286;2023-01-15T19:09:20;77.33;;;42.97;;
69523;SDS011;56723;42.694;23.286;2023-01-15T19:14:18;79.03;;;47.50;;
69523;SDS011;56723;42.694;23.286;2023-01-15T19:17:04;100.20;;;56.27;;
69523;SDS011;56723;42.694;23.286;2023-01-15T19:19:50;101.33;;;61.60;;
69523;SDS011;56723;42.694;23.286;2023-01-15T19:22:17;105.10;;;64.57;;
69523;SDS011;56723;42.694;23.286;2023-01-15T19:25:03;111.13;;;61.53;;
69523;SDS011;56723;42.694;23.286;2023-01-15T19:27:30;102.20;;;57.07;;
69523;SDS011;56723;42.694;23.286;2023-01-15T19:29:57;111.23;;;67.50;;
69523;SDS011;56723;42.694;23.286;2023-01-15T19:32:25;126.40;;;76.90;;
69523;SDS011;56723;42.694;23.286;2023-01-15T19:34:52;168.47;;;104.80;;
69523;SDS011;56723;42.694;23.286;2023-01-15T19:37:19;159.03;;;90.90;;
69523;SDS011;56723;42.694;23.286;2023-01-15T19:39:46;155.33;;;91.43;;
69523;SDS011;56723;42.694;23.286;2023-01-15T19:42:16;131.67;;;75.73;;
69523;SDS011;56723;42.694;23.286;2023-01-15T19:45:02;148.02;;;86.75;;
69523;SDS011;56723;42.694;23.286;2023-01-15T19:47:48;137.50;;;84.80;;
69523;SDS011;56723;42.694;23.286;2023-01-15T19:50:35;141.93;;;79.20;;
69523;SDS011;56723;42.694;23.286;2023-01-15T19:53:04;139.17;;;81.23;;
69523;SDS011;56723;42.694;23.286;2023-01-15T19:55:31;141.00;;;82.97;;
69523;SDS011;56723;42.694;23.286;2023-01-15T19:58:00;148.33;;;83.93;;
69523;SDS011;56723;42.694;23.286;2023-01-15T20:00:30;142.60;;;77.07;;
69523;SDS011;56723;42.694;23.286;2023-01-15T20:03:00;142.93;;;83.40;;
69523;SDS011;56723;42.694;23.286;2023-01-15T20:05:29;164.90;;;95.67;;
69523;SDS011;56723;42.694;23.286;2023-01-15T20:07:57;160.38;;;97.68;;
69523;SDS011;56723;42.694;23.286;2023-01-15T20:10:26;186.80;;;117.63;;
69523;SDS011;56723;42.694;23.286;2023-01-15T20:12:54;163.23;;;94.43;;
69523;SDS011;56723;42.694;23.286;2023-01-15T20:15:47;171.30;;;101.37;;
69523;SDS011;56723;42.694;23.286;2023-01-15T20:18:14;168.70;;;106.93;;
69523;SDS011;56723;42.694;23.286;2023-01-15T20:20:42;173.07;;;109.50;;
69523;SDS011;56723;42.694;23.286;2023-01-15T20:23:09;175.47;;;111.60;;
69523;SDS011;56723;42.694;23.286;2023-01-15T20:25:37;188.77;;;118.57;;
69523;SDS011;56723;42.694;23.286;2023-01-15T20:28:04;187.10;;;117.60;;
69523;SDS011;56723;42.694;23.286;2023-01-15T20:30:31;230.87;;;158.07;;
69523;SDS011;56723;42.694;23.286;2023-01-15T20:32:58;208.10;;;141.53;;
69523;SDS011;56723;42.694;23.286;2023-01-15T20:35:27;216.97;;;146.03;;
69523;SDS011;56723;42.694;23.286;2023-01-15T20:37:57;213.23;;;137.10;;
69523;SDS011;56723;42.694;23.286;2023-01-15T20:40:24;151.07;;;93.63;;
69523;SDS011;56723;42.694;23.286;2023-01-15T20:42:52;143.33;;;86.27;;
69523;SDS011;56723;42.694;23.286;2023-01-15T20:45:39;153.57;;;97.53;;
69523;SDS011;56723;42.694;23.286;2023-01-15T20:48:06;168.53;;;106.60;;
69523;SDS011;56723;42.694;23.286;2023-01-15T20:50:40;137.50;;;84.63;;
69523;SDS011;56723;42.694;23.286;2023-01-15T20:53:27;107.18;;;62.83;;
69523;SDS011;56723;42.694;23.286;2023-01-15T20:55:55;118.32;;;71.72;;
69523;SDS011;56723;42.694;23.286;2023-01-15T20:58:23;117.73;;;72.90;;
69523;SDS011;56723;42.694;23.286;2023-01-15T21:00:50;120.00;;;72.47;;
69523;SDS011;56723;42.694;23.286;2023-01-15T21:03:18;107.40;;;65.60;;
69523;SDS011;56723;42.694;23.286;2023-01-15T21:05:46;119.77;;;73.37;;
69523;SDS011;56723;42.694;23.286;2023-01-15T21:08:13;127.20;;;73.57;;
69523;SDS011;56723;42.694;23.286;2023-01-15T21:10:40;126.27;;;74.47;;
69523;SDS011;56723;42.694;23.286;2023-01-15T21:13:07;127.07;;;78.33;;
69523;SDS011;56723;42.694;23.286;2023-01-15T21:15:34;128.27;;;78.67;;
69523;SDS011;56723;42.694;23.286;2023-01-15T21:18:01;105.20;;;62.73;;
69523;SDS011;56723;42.694;23.286;2023-01-15T21:20:28;103.30;;;61.77;;
69523;SDS011;56723;42.694;23.286;2023-01-15T21:22:55;103.27;;;55.00;;
69523;SDS011;56723;42.694;23.286;2023-01-15T21:25:23;86.50;;;51.10;;
69523;SDS011;56723;42.694;23.286;2023-01-15T21:27:51;86.23;;;48.63;;
69523;SDS011;56723;42.694;23.286;2023-01-15T21:30:18;88.70;;;51.83;;
69523;SDS011;56723;42.694;23.286;2023-01-15T21:32:46;98.37;;;57.87;;
69523;SDS011;56723;42.694;23.286;2023-01-15T21:35:14;97.23;;;51.80;;
69523;SDS011;56723;42.694;23.286;2023-01-15T21:37:41;106.03;;;63.57;;
69523;SDS011;56723;42.694;23.286;2023-01-15T21:40:08;99.43;;;59.30;;
69523;SDS011;56723;42.694;23.286;2023-01-15T21:42:35;93.73;;;53.20;;
69523;SDS011;56723;42.694;23.286;2023-01-15T21:45:21;100.00;;;57.33;;
69523;SDS011;56723;42.694;23.286;2023-01-15T21:47:48;92.07;;;52.53;;
69523;SDS011;56723;42.694;23.286;2023-01-15T21:50:18;98.97;;;53.67;;
69523;SDS011;56723;42.694;23.286;2023-01-15T21:52:45;120.93;;;66.20;;
69523;SDS011;56723;42.694;23.286;2023-01-15T21:55:13;142.10;;;86.40;;
69523;SDS011;56723;42.694;23.286;2023-01-15T21:57:40;162.70;;;93.57;;
69523;SDS011;56723;42.694;23.286;2023-01-15T22:00:09;123.73;;;70.50;;
69523;SDS011;56723;42.694;23.286;2023-01-15T22:02:37;110.30;;;62.15;;
69523;SDS011;56723;42.694;23.286;2023-01-15T22:05:04;110.53;;;63.10;;
69523;SDS011;56723;42.694;23.286;2023-01-15T22:07:31;106.13;;;61.33;;
69523;SDS011;56723;42.694;23.286;2023-01-15T22:09:58;98.80;;;56.57;;
69523;SDS011;56723;42.694;23.286;2023-01-15T22:12:25;97.97;;;54.23;;
69523;SDS011;56723;42.694;23.286;2023-01-15T22:14:52;116.47;;;62.90;;
69523;SDS011;56723;42.694;23.286;2023-01-15T22:17:20;119.93;;;68.20;;
69523;SDS011;56723;42.694;23.286;2023-01-15T22:19:47;113.83;;;63.70;;
69523;SDS011;56723;42.694;23.286;2023-01-15T22:22:16;110.97;;;62.00;;
69523;SDS011;56723;42.694;23.286;2023-01-15T22:24:43;113.77;;;64.50;;
69523;SDS011;56723;42.694;23.286;2023-01-15T22:27:12;118.43;;;68.17;;
69523;SDS011;56723;42.694;23.286;2023-01-15T22:29:41;110.47;;;62.00;;
69523;SDS011;56723;42.694;23.286;2023-01-15T22:32:09;107.83;;;57.90;;
69523;SDS011;56723;42.694;23.286;2023-01-15T22:34:38;112.03;;;60.33;;
69523;SDS011;56723;42.694;23.286;2023-01-15T22:37:05;119.20;;;66.17;;
69523;SDS011;56723;42.694;23.286;2023-01-15T22:39:32;112.57;;;59.07;;
69523;SDS011;56723;42.694;23.286;2023-01-15T22:41:59;100.50;;;53.67;;
69523;SDS011;56723;42.694;23.286;2023-01-15T22:44:46;139.67;;;81.83;;
69523;SDS011;56723;42.694;23.286;2023-01-15T22:47:14;110.13;;;58.88;;
69523;SDS011;56723;42.694;23.286;2023-01-15T22:49:41;112.80;;;62.97;;
69523;SDS011;56723;42.694;23.286;2023-01-15T22:52:08;108.47;;;60.90;;
69523;SDS011;56723;42.694;23.286;2023-01-15T22:54:35;101.40;;;54.33;;
69523;SDS011;56723;42.694;23.286;2023-01-15T22:57:03;104.30;;;57.17;;
69523;SDS011;56723;42.694;23.286;2023-01-15T22:59:30;102.27;;;54.27;;
69523;SDS011;56723;42.694;23.286;2023-01-15T23:01:57;92.03;;;49.80;;
69523;SDS011;56723;42.694;23.286;2023-01-15T23:04:25;89.77;;;48.23;;
69523;SDS011;56723;42.694;23.286;2023-01-15T23:06:52;84.90;;;45.17;;
69523;SDS011;56723;42.694;23.286;2023-01-15T23:09:20;91.93;;;54.07;;
69523;SDS011;56723;42.694;23.286;2023-01-15T23:11:49;96.18;;;52.20;;
69523;SDS011;56723;42.694;23.286;2023-01-15T23:14:17;93.73;;;52.20;;
69523;SDS011;56723;42.694;23.286;2023-01-15T23:19:13;100.20;;;52.00;;
69523;SDS011;56723;42.694;23.286;2023-01-15T23:21:41;99.70;;;52.13;;
69523;SDS011;56723;42.694;23.286;2023-01-15T23:24:08;92.90;;;49.47;;
69523;SDS011;56723;42.694;23.286;2023-01-15T23:26:35;89.00;;;49.37;;
69523;SDS011;56723;42.694;23.286;2023-01-15T23:29:02;82.27;;;47.10;;
69523;SDS011;56723;42.694;23.286;2023-01-15T23:31:29;77.90;;;43.53;;
69523;SDS011;56723;42.694;23.286;2023-01-15T23:33:57;75.30;;;42.23;;
69523;SDS011;56723;42.694;23.286;2023-01-15T23:36:24;83.43;;;45.00;;
69523;SDS011;56723;42.694;23.286;2023-01-15T23:38:51;89.13;;;48.67;;
69523;SDS011;56723;42.694;23.286;2023-01-15T23:41:19;79.43;;;44.17;;
69523;SDS011;56723;42.694;23.286;2023-01-15T23:44:11;79.93;;;44.33;;
69523;SDS011;56723;42.694;23.286;2023-01-15T23:46:59;88.20;;;48.17;;
69523;SDS011;56723;42.694;23.286;2023-01-15T23:49:26;74.77;;;42.30;;
69523;SDS011;56723;42.694;23.286;2023-01-15T23:51:53;72.77;;;40.57;;
69523;SDS011;56723;42.694;23.286;2023-01-15T23:54:21;71.77;;;38.00;;
69523;SDS011;56723;42.694;23.286;2023-01-15T23:59:17;72.30;;;34.40;;
